• Join FlightAware (Why Join?)
  • Login
  • US Flag 
04:35AM EDT


 

Airport Tracker/Info


-or-


 

Live Flight TrackerFlight Track Log ✈ EJA929 ✈ 09-Jun-2013 ✈ KAEJ - KJAC

Flight Track Log - Related Links

Times and Time Zones

All times are in EDT time to prevent confusion due to time zone crossing. See the EJA929 flight status page for this flight to view local times or setup timezone preferences in your user account.

Time Position Orientation Groundspeed Altitude Reporting Facility
EDT Latitude Longitude Course Direction KTS MPH feet Rate Location/Type
01:57PM 39.3835 -106.8335 322° Northwest  Level FlightAware Approximate
01:58PM 39.4748 -106.9247 322° Northwest  Level FlightAware Approximate
01:58PM 38.8011 -106.0578 325° Northwest 326 375 16,800  Level Denver Center
01:59PM 39.5661 -107.0161 322° Northwest  Level FlightAware Approximate
01:59PM 38.8575 -106.1325 314° West 295 339 19,000  Level Denver Center
02:00PM 39.6575 -107.1075 322° Northwest  Level FlightAware Approximate
02:00PM 38.9536 -106.1697 343° North 352 405 20,800  Level Denver Center
02:01PM 39.7500 -107.1905 270° West  Level FlightAware Approximate
02:01PM 39.0486 -106.1864 352° North 359 413 22,900  Level Denver Center
02:02PM 39.8402 -107.2773 327° Northwest  Level FlightAware Approximate
02:02PM 39.1483 -106.2553 332° Northwest 372 428 25,000  Level Denver Center
02:03PM 39.9356 -107.3619 325° Northwest  Level FlightAware Approximate
02:03PM 39.2281 -106.3386 321° Northwest 383 441 26,700  Level Denver Center
02:04PM 39.3206 -106.4394 320° Northwest 388 447 29,000 1,860 Climbing Denver Center
02:05PM 39.4025 -106.5283 320° Northwest 398 458 30,600 1,800 Climbing Denver Center
02:06PM 39.4983 -106.6325 320° Northwest 401 461 32,800 1,500 Climbing Denver Center
02:07PM 39.5831 -106.7267 319° Northwest 415 478 33,700 540 Climbing Denver Center
02:08PM 39.6839 -106.8386 320° Northwest 444 511 34,000 120 Climbing Denver Center
02:09PM 39.7856 -106.9481 320° Northwest 476 548 34,000  Level Denver Center
02:10PM 39.8867 -107.0600 320° Northwest 479 551 34,000  Level Denver Center
02:11PM 39.9950 -107.1808 320° Northwest 476 548 34,000  Level Denver Center
02:12PM 40.0931 -107.2897 320° Northwest 483 556 34,000  Level Denver Center
02:13PM 40.2056 -107.4161 319° Northwest 481 554 34,000  Level Denver Center
02:14PM 40.2847 -107.5067 319° Northwest 477 549 34,000  Level Denver Center
02:15PM 40.4136 -107.6506 320° Northwest 479 551 34,000  Level Denver Center
02:16PM 40.5092 -107.7603 319° Northwest 478 550 34,000  Level Denver Center
02:17PM 40.6211 -107.8858 320° Northwest 476 548 34,000  Level Denver Center
02:18PM 40.7178 -107.9958 319° Northwest 480 552 34,000  Level Denver Center
02:20PM 40.8197 -108.1131 319° Northwest 477 549 34,000  Level Denver Center
02:21PM 40.9311 -108.2411 319° Northwest 475 547 34,000  Level Denver Center
02:22PM 41.0269 -108.3533 319° Northwest 478 550 34,000  Level Salt Lake Center
02:22PM 41.0269 -108.3533 319° Northwest 480 552 34,000  Level Denver Center
02:23PM 41.1219 -108.4642 319° Northwest 478 550 34,000  Level Salt Lake Center
02:24PM 41.2331 -108.5939 319° Northwest 477 549 34,000  Level Salt Lake Center
02:25PM 41.3447 -108.7239 319° Northwest 481 554 34,000  Level Denver Center
02:26PM 41.4392 -108.8356 318° Northwest 479 551 34,000  Level Salt Lake Center
02:27PM 41.5333 -108.9469 318° Northwest 481 554 34,000  Level Salt Lake Center
02:28PM 41.6453 -109.0744 320° Northwest 482 555 34,000  Level Salt Lake Center
02:29PM 41.7600 -109.2011 321° Northwest 483 556 34,000  Level Salt Lake Center
02:30PM 41.8592 -109.3100 321° Northwest 484 557 34,000  Level Salt Lake Center
02:31PM 41.9747 -109.4375 321° Northwest 483 556 34,000  Level Salt Lake Center
02:32PM 42.0753 -109.5483 321° Northwest 487 560 34,000  Level Salt Lake Center
02:33PM 42.1906 -109.6761 321° Northwest 483 556 34,000  Level Salt Lake Center
02:34PM 42.2900 -109.7869 321° Northwest 485 558 34,000  Level Salt Lake Center
02:35PM 42.3892 -109.8978 320° Northwest 485 558 34,000 -900 Level Salt Lake Center
02:36PM 42.5042 -110.0278 320° Northwest 482 555 32,200 -2,100 Descending Salt Lake Center
02:37PM 42.6147 -110.1156 330° Northwest 482 555 29,700 -2,580 Descending Salt Lake Center
02:38PM 42.7453 -110.1967 335° Northwest 483 556 26,900 -2,700 Descending Salt Lake Center
02:39PM 42.8758 -110.2778 336° Northwest 465 535 24,200 -2,400 Descending Salt Lake Center
02:40PM 42.9831 -110.3442 336° Northwest 447 514 22,000 -2,040 Descending Salt Lake Center
02:41PM 43.0969 -110.3789 347° North 421 484 20,000 -1,800 Descending Salt Lake Center
02:42PM 43.2033 -110.3883 356° North 345 397 18,400 -1,860 Descending Salt Lake Center
02:43PM 43.2925 -110.3933 358° North 318 366 16,200 -1,860 Descending Salt Lake Center
02:44PM 43.3736 -110.4144 349° North 304 350 14,600 -1,020 Descending Salt Lake Center
02:45PM 43.4350 -110.4694 327° Northwest 262 302 14,100 -900 Descending Salt Lake Center
02:46PM 43.5017 -110.5292 327° Northwest 283 326 12,800 -1,020 Descending Salt Lake Center
02:47PM 43.5644 -110.5864 327° Northwest 277 319 12,000 -1,020 Descending Salt Lake Center
02:48PM 43.6431 -110.6131 346° North 254 292 10,800 -1,380 Descending Salt Lake Center
02:49PM 43.6886 -110.6611 323° Northwest 224 258 9,200 -1,560 Descending Salt Lake Center
02:50PM 43.6694 -110.7056 239° Southwest 171 197 7,600 -1,200 Descending Salt Lake Center
02:51PM 43.6308 -110.7275 202° Southwest 155 178 6,800 -780 Descending Salt Lake Center